sensor_id;sensor_type;location;lat;lon;timestamp;pressure;altitude;pressure_sealevel;temperature;humidity
47706;BME280;33471;52.104;1.318;2023-01-28T00:01:05;102787.59;;;4.92;46.27
47706;BME280;33471;52.104;1.318;2023-01-28T00:03:32;102781.87;;;5.23;46.61
47706;BME280;33471;52.104;1.318;2023-01-28T00:06:02;102780.77;;;5.45;46.53
47706;BME280;33471;52.104;1.318;2023-01-28T00:08:29;102784.98;;;5.33;46.74
47706;BME280;33471;52.104;1.318;2023-01-28T00:10:58;102782.58;;;5.49;47.12
47706;BME280;33471;52.104;1.318;2023-01-28T00:13:26;102787.68;;;5.75;46.70
47706;BME280;33471;52.104;1.318;2023-01-28T00:15:54;102786.87;;;5.58;46.12
47706;BME280;33471;52.104;1.318;2023-01-28T00:18:22;102780.30;;;4.78;47.87
47706;BME280;33471;52.104;1.318;2023-01-28T00:20:56;102782.06;;;4.16;49.74
47706;BME280;33471;52.104;1.318;2023-01-28T00:23:23;102786.11;;;3.28;50.64
47706;BME280;33471;52.104;1.318;2023-01-28T00:25:52;102787.13;;;3.41;51.40
47706;BME280;33471;52.104;1.318;2023-01-28T00:28:19;102783.10;;;4.67;49.25
47706;BME280;33471;52.104;1.318;2023-01-28T00:30:46;102782.54;;;4.61;48.45
47706;BME280;33471;52.104;1.318;2023-01-28T00:33:14;102779.57;;;4.85;47.84
47706;BME280;33471;52.104;1.318;2023-01-28T00:35:40;102774.70;;;5.27;47.16
47706;BME280;33471;52.104;1.318;2023-01-28T00:38:07;102774.97;;;5.51;46.65
47706;BME280;33471;52.104;1.318;2023-01-28T00:40:35;102775.57;;;5.65;46.63
47706;BME280;33471;52.104;1.318;2023-01-28T00:43:03;102770.24;;;5.02;46.48
47706;BME280;33471;52.104;1.318;2023-01-28T00:45:30;102769.41;;;5.53;46.41
47706;BME280;33471;52.104;1.318;2023-01-28T00:47:57;102768.99;;;5.76;46.33
47706;BME280;33471;52.104;1.318;2023-01-28T00:50:24;102764.41;;;5.72;46.15
47706;BME280;33471;52.104;1.318;2023-01-28T00:52:52;102765.43;;;4.63;48.50
47706;BME280;33471;52.104;1.318;2023-01-28T00:55:19;102759.21;;;4.79;47.13
47706;BME280;33471;52.104;1.318;2023-01-28T00:57:45;102757.55;;;5.78;46.06
47706;BME280;33471;52.104;1.318;2023-01-28T01:00:13;102757.96;;;5.24;46.04
47706;BME280;33471;52.104;1.318;2023-01-28T01:02:40;102754.96;;;5.59;45.81
47706;BME280;33471;52.104;1.318;2023-01-28T01:05:08;102754.06;;;5.55;45.22
47706;BME280;33471;52.104;1.318;2023-01-28T01:07:35;102754.06;;;5.58;45.67
47706;BME280;33471;52.104;1.318;2023-01-28T01:10:04;102756.28;;;5.70;45.24
47706;BME280;33471;52.104;1.318;2023-01-28T01:12:31;102757.15;;;5.75;44.99
47706;BME280;33471;52.104;1.318;2023-01-28T01:14:59;102757.77;;;5.59;45.13
47706;BME280;33471;52.104;1.318;2023-01-28T01:17:29;102760.48;;;5.51;45.09
47706;BME280;33471;52.104;1.318;2023-01-28T01:19:57;102764.13;;;5.42;45.28
47706;BME280;33471;52.104;1.318;2023-01-28T01:22:23;102762.99;;;5.70;45.33
47706;BME280;33471;52.104;1.318;2023-01-28T01:24:51;102766.52;;;5.87;45.61
47706;BME280;33471;52.104;1.318;2023-01-28T01:27:18;102767.26;;;5.32;46.16
47706;BME280;33471;52.104;1.318;2023-01-28T01:29:45;102774.38;;;5.47;45.78
47706;BME280;33471;52.104;1.318;2023-01-28T01:32:13;102774.38;;;4.43;49.15
47706;BME280;33471;52.104;1.318;2023-01-28T01:34:40;102765.43;;;4.12;48.48
47706;BME280;33471;52.104;1.318;2023-01-28T01:37:07;102760.93;;;4.25;48.75
47706;BME280;33471;52.104;1.318;2023-01-28T01:39:34;102762.79;;;5.31;46.03
47706;BME280;33471;52.104;1.318;2023-01-28T01:42:01;102765.26;;;4.55;47.33
47706;BME280;33471;52.104;1.318;2023-01-28T01:45:03;102766.19;;;6.80;45.88
47706;BME280;33471;52.104;1.318;2023-01-28T01:47:36;102765.22;;;6.01;45.90
47706;BME280;33471;52.104;1.318;2023-01-28T01:50:11;102766.32;;;6.43;45.24
47706;BME280;33471;52.104;1.318;2023-01-28T01:52:41;102766.55;;;6.40;44.88
47706;BME280;33471;52.104;1.318;2023-01-28T01:55:13;102771.32;;;6.49;44.67
47706;BME280;33471;52.104;1.318;2023-01-28T01:57:43;102769.29;;;6.31;44.13
47706;BME280;33471;52.104;1.318;2023-01-28T02:00:13;102764.62;;;5.96;45.49
47706;BME280;33471;52.104;1.318;2023-01-28T02:02:43;102762.40;;;5.60;46.23
47706;BME280;33471;52.104;1.318;2023-01-28T02:05:14;102753.45;;;6.10;44.69
47706;BME280;33471;52.104;1.318;2023-01-28T02:07:42;102744.03;;;6.66;43.89
47706;BME280;33471;52.104;1.318;2023-01-28T02:10:11;102746.35;;;6.78;43.79
47706;BME280;33471;52.104;1.318;2023-01-28T02:12:42;102740.52;;;7.27;42.73
47706;BME280;33471;52.104;1.318;2023-01-28T02:15:14;102747.23;;;7.38;42.25
47706;BME280;33471;52.104;1.318;2023-01-28T02:17:43;102757.01;;;6.16;43.59
47706;BME280;33471;52.104;1.318;2023-01-28T02:20:13;102757.18;;;6.24;44.63
47706;BME280;33471;52.104;1.318;2023-01-28T02:23:05;102766.37;;;5.85;45.06
47706;BME280;33471;52.104;1.318;2023-01-28T02:25:49;102763.16;;;6.68;43.76
47706;BME280;33471;52.104;1.318;2023-01-28T02:28:27;102758.49;;;6.47;43.12
47706;BME280;33471;52.104;1.318;2023-01-28T02:31:03;102758.95;;;5.94;44.42
47706;BME280;33471;52.104;1.318;2023-01-28T02:33:40;102755.71;;;6.98;42.80
47706;BME280;33471;52.104;1.318;2023-01-28T02:36:17;102754.50;;;7.43;42.39
47706;BME280;33471;52.104;1.318;2023-01-28T02:38:53;102753.97;;;7.02;42.41
47706;BME280;33471;52.104;1.318;2023-01-28T02:41:24;102761.31;;;6.29;44.81
47706;BME280;33471;52.104;1.318;2023-01-28T02:43:55;102753.40;;;6.60;43.70
47706;BME280;33471;52.104;1.318;2023-01-28T02:46:34;102759.49;;;5.95;44.58
47706;BME280;33471;52.104;1.318;2023-01-28T02:49:04;102754.03;;;6.76;43.82
47706;BME280;33471;52.104;1.318;2023-01-28T02:51:42;102754.22;;;6.64;44.06
47706;BME280;33471;52.104;1.318;2023-01-28T02:54:16;102763.50;;;5.74;45.88
47706;BME280;33471;52.104;1.318;2023-01-28T02:57:00;102761.14;;;6.12;45.31
47706;BME280;33471;52.104;1.318;2023-01-28T02:59:38;102764.38;;;6.18;46.12
47706;BME280;33471;52.104;1.318;2023-01-28T03:02:13;102764.42;;;6.21;44.81
47706;BME280;33471;52.104;1.318;2023-01-28T03:04:48;102758.31;;;6.89;43.88
47706;BME280;33471;52.104;1.318;2023-01-28T03:07:16;102755.05;;;6.92;43.98
47706;BME280;33471;52.104;1.318;2023-01-28T03:09:46;102769.29;;;6.69;43.92
47706;BME280;33471;52.104;1.318;2023-01-28T03:12:18;102771.68;;;6.62;44.59
47706;BME280;33471;52.104;1.318;2023-01-28T03:14:49;102768.20;;;6.41;44.41
47706;BME280;33471;52.104;1.318;2023-01-28T03:17:19;102770.31;;;6.51;44.89
47706;BME280;33471;52.104;1.318;2023-01-28T03:19:49;102768.33;;;7.05;44.33
47706;BME280;33471;52.104;1.318;2023-01-28T03:22:17;102770.09;;;6.41;44.88
47706;BME280;33471;52.104;1.318;2023-01-28T03:24:46;102765.76;;;6.74;44.42
47706;BME280;33471;52.104;1.318;2023-01-28T03:27:18;102764.68;;;6.57;44.68
47706;BME280;33471;52.104;1.318;2023-01-28T03:29:53;102767.46;;;7.21;43.74
47706;BME280;33471;52.104;1.318;2023-01-28T03:32:22;102781.88;;;6.65;44.77
47706;BME280;33471;52.104;1.318;2023-01-28T03:34:52;102781.08;;;6.32;45.73
47706;BME280;33471;52.104;1.318;2023-01-28T03:37:21;102775.58;;;6.69;44.66
47706;BME280;33471;52.104;1.318;2023-01-28T03:39:48;102776.43;;;6.07;45.98
47706;BME280;33471;52.104;1.318;2023-01-28T03:42:15;102777.76;;;5.95;45.75
47706;BME280;33471;52.104;1.318;2023-01-28T03:44:43;102776.94;;;6.70;44.66
47706;BME280;33471;52.104;1.318;2023-01-28T03:47:11;102784.50;;;6.14;46.16
47706;BME280;33471;52.104;1.318;2023-01-28T03:49:40;102783.11;;;5.71;46.71
47706;BME280;33471;52.104;1.318;2023-01-28T03:52:07;102790.63;;;5.84;46.70
47706;BME280;33471;52.104;1.318;2023-01-28T03:54:35;102791.38;;;6.70;44.92
47706;BME280;33471;52.104;1.318;2023-01-28T03:57:02;102793.84;;;5.84;46.30
47706;BME280;33471;52.104;1.318;2023-01-28T03:59:29;102797.08;;;6.16;45.80
47706;BME280;33471;52.104;1.318;2023-01-28T04:01:57;102802.48;;;6.64;45.40
47706;BME280;33471;52.104;1.318;2023-01-28T04:04:24;102800.04;;;6.85;44.67
47706;BME280;33471;52.104;1.318;2023-01-28T04:06:53;102798.59;;;7.01;44.94
47706;BME280;33471;52.104;1.318;2023-01-28T04:09:20;102798.23;;;7.22;44.46
47706;BME280;33471;52.104;1.318;2023-01-28T04:11:48;102800.63;;;7.20;44.47
47706;BME280;33471;52.104;1.318;2023-01-28T04:14:16;102799.59;;;7.46;44.55
47706;BME280;33471;52.104;1.318;2023-01-28T04:16:42;102803.27;;;7.16;44.24
47706;BME280;33471;52.104;1.318;2023-01-28T04:19:10;102805.55;;;7.37;44.19
47706;BME280;33471;52.104;1.318;2023-01-28T04:21:38;102804.39;;;7.18;44.28
47706;BME280;33471;52.104;1.318;2023-01-28T04:24:06;102805.92;;;6.68;45.01
47706;BME280;33471;52.104;1.318;2023-01-28T04:26:34;102800.46;;;7.00;44.87
47706;BME280;33471;52.104;1.318;2023-01-28T04:29:01;102800.61;;;7.19;44.51
47706;BME280;33471;52.104;1.318;2023-01-28T04:31:29;102796.89;;;7.37;43.82
47706;BME280;33471;52.104;1.318;2023-01-28T04:33:56;102798.99;;;7.34;44.16
47706;BME280;33471;52.104;1.318;2023-01-28T04:36:24;102798.97;;;7.31;43.86
47706;BME280;33471;52.104;1.318;2023-01-28T04:38:51;102795.54;;;7.67;43.44
47706;BME280;33471;52.104;1.318;2023-01-28T04:41:19;102792.38;;;7.80;43.37
47706;BME280;33471;52.104;1.318;2023-01-28T04:43:47;102793.89;;;7.99;43.18
47706;BME280;33471;52.104;1.318;2023-01-28T04:46:14;102794.54;;;7.93;42.82
47706;BME280;33471;52.104;1.318;2023-01-28T04:48:42;102797.31;;;7.95;42.91
47706;BME280;33471;52.104;1.318;2023-01-28T04:51:09;102799.98;;;7.51;42.79
47706;BME280;33471;52.104;1.318;2023-01-28T04:53:36;102792.07;;;7.93;42.62
47706;BME280;33471;52.104;1.318;2023-01-28T04:56:03;102777.77;;;7.33;43.64
47706;BME280;33471;52.104;1.318;2023-01-28T04:58:30;102777.05;;;7.57;43.18
47706;BME280;33471;52.104;1.318;2023-01-28T05:00:58;102781.68;;;7.90;42.78
47706;BME280;33471;52.104;1.318;2023-01-28T05:03:26;102784.25;;;7.89;43.15
47706;BME280;33471;52.104;1.318;2023-01-28T05:05:54;102778.66;;;7.78;42.90
47706;BME280;33471;52.104;1.318;2023-01-28T05:08:21;102778.84;;;8.20;42.33
47706;BME280;33471;52.104;1.318;2023-01-28T05:10:48;102784.51;;;8.18;42.91
47706;BME280;33471;52.104;1.318;2023-01-28T05:13:15;102783.18;;;7.71;42.78
47706;BME280;33471;52.104;1.318;2023-01-28T05:15:42;102779.83;;;8.17;42.97
47706;BME280;33471;52.104;1.318;2023-01-28T05:18:09;102780.99;;;8.07;42.88
47706;BME280;33471;52.104;1.318;2023-01-28T05:20:36;102780.82;;;7.27;43.45
47706;BME280;33471;52.104;1.318;2023-01-28T05:23:04;102781.05;;;7.61;42.97
47706;BME280;33471;52.104;1.318;2023-01-28T05:25:31;102774.99;;;7.96;43.03
47706;BME280;33471;52.104;1.318;2023-01-28T05:27:58;102777.11;;;8.08;42.86
47706;BME280;33471;52.104;1.318;2023-01-28T05:30:25;102779.40;;;7.61;43.33
47706;BME280;33471;52.104;1.318;2023-01-28T05:32:56;102779.59;;;7.51;43.05
47706;BME280;33471;52.104;1.318;2023-01-28T05:35:24;102781.66;;;7.70;43.34
47706;BME280;33471;52.104;1.318;2023-01-28T05:37:51;102778.72;;;7.78;42.94
47706;BME280;33471;52.104;1.318;2023-01-28T05:40:18;102777.33;;;7.96;42.94
47706;BME280;33471;52.104;1.318;2023-01-28T05:42:45;102774.07;;;8.50;42.20
47706;BME280;33471;52.104;1.318;2023-01-28T05:45:12;102773.82;;;7.45;43.09
47706;BME280;33471;52.104;1.318;2023-01-28T05:47:39;102773.98;;;7.43;43.48
47706;BME280;33471;52.104;1.318;2023-01-28T05:50:07;102774.19;;;7.80;42.97
47706;BME280;33471;52.104;1.318;2023-01-28T05:52:35;102778.46;;;7.39;43.03
47706;BME280;33471;52.104;1.318;2023-01-28T05:55:02;102780.07;;;8.08;42.73
47706;BME280;33471;52.104;1.318;2023-01-28T05:57:29;102779.47;;;7.80;43.43
47706;BME280;33471;52.104;1.318;2023-01-28T05:59:56;102789.65;;;7.84;42.54
47706;BME280;33471;52.104;1.318;2023-01-28T06:02:23;102792.22;;;6.62;44.24
47706;BME280;33471;52.104;1.318;2023-01-28T06:04:50;102782.51;;;6.97;43.39
47706;BME280;33471;52.104;1.318;2023-01-28T06:07:18;102781.04;;;7.37;43.59
47706;BME280;33471;52.104;1.318;2023-01-28T06:09:45;102784.93;;;7.62;42.42
47706;BME280;33471;52.104;1.318;2023-01-28T06:12:13;102793.85;;;6.92;43.87
47706;BME280;33471;52.104;1.318;2023-01-28T06:14:39;102795.53;;;6.67;44.24
47706;BME280;33471;52.104;1.318;2023-01-28T06:17:07;102795.90;;;6.15;44.42
47706;BME280;33471;52.104;1.318;2023-01-28T06:19:34;102797.10;;;5.55;47.14
47706;BME280;33471;52.104;1.318;2023-01-28T06:22:02;102796.50;;;6.46;44.97
47706;BME280;33471;52.104;1.318;2023-01-28T06:24:29;102792.82;;;7.44;42.28
47706;BME280;33471;52.104;1.318;2023-01-28T06:26:56;102783.49;;;7.22;43.28
47706;BME280;33471;52.104;1.318;2023-01-28T06:29:23;102781.38;;;7.33;43.57
47706;BME280;33471;52.104;1.318;2023-01-28T06:31:51;102778.85;;;7.67;42.82
47706;BME280;33471;52.104;1.318;2023-01-28T06:34:18;102784.41;;;7.60;42.67
47706;BME280;33471;52.104;1.318;2023-01-28T06:36:45;102785.51;;;7.74;42.15
47706;BME280;33471;52.104;1.318;2023-01-28T06:39:12;102787.32;;;7.11;42.21
47706;BME280;33471;52.104;1.318;2023-01-28T06:41:39;102787.67;;;7.73;42.53
47706;BME280;33471;52.104;1.318;2023-01-28T06:44:06;102790.78;;;7.81;42.09
47706;BME280;33471;52.104;1.318;2023-01-28T06:46:33;102791.24;;;7.68;42.31
47706;BME280;33471;52.104;1.318;2023-01-28T06:49:00;102795.54;;;7.96;42.04
47706;BME280;33471;52.104;1.318;2023-01-28T06:51:27;102796.77;;;7.74;42.09
47706;BME280;33471;52.104;1.318;2023-01-28T06:53:54;102805.46;;;7.70;42.23
47706;BME280;33471;52.104;1.318;2023-01-28T06:56:21;102809.51;;;7.63;42.37
47706;BME280;33471;52.104;1.318;2023-01-28T06:58:48;102808.51;;;6.98;43.85
47706;BME280;33471;52.104;1.318;2023-01-28T07:01:16;102800.52;;;7.76;41.87
47706;BME280;33471;52.104;1.318;2023-01-28T07:03:43;102801.91;;;7.30;42.39
47706;BME280;33471;52.104;1.318;2023-01-28T07:06:10;102809.22;;;7.66;42.05
47706;BME280;33471;52.104;1.318;2023-01-28T07:08:37;102811.25;;;7.88;41.69
47706;BME280;33471;52.104;1.318;2023-01-28T07:11:05;102815.09;;;7.68;41.82
47706;BME280;33471;52.104;1.318;2023-01-28T07:13:33;102813.27;;;8.05;41.62
47706;BME280;33471;52.104;1.318;2023-01-28T07:16:00;102813.28;;;7.33;42.32
47706;BME280;33471;52.104;1.318;2023-01-28T07:18:27;102815.53;;;8.38;42.38
47706;BME280;33471;52.104;1.318;2023-01-28T07:20:54;102820.09;;;8.15;42.98
47706;BME280;33471;52.104;1.318;2023-01-28T07:23:22;102827.66;;;7.45;43.42
47706;BME280;33471;52.104;1.318;2023-01-28T07:25:49;102827.99;;;7.07;43.57
47706;BME280;33471;52.104;1.318;2023-01-28T07:28:17;102827.62;;;7.06;44.17
47706;BME280;33471;52.104;1.318;2023-01-28T07:30:44;102829.69;;;7.20;43.78
47706;BME280;33471;52.104;1.318;2023-01-28T07:33:11;102835.88;;;7.08;43.46
47706;BME280;33471;52.104;1.318;2023-01-28T07:35:39;102822.83;;;7.71;43.00
47706;BME280;33471;52.104;1.318;2023-01-28T07:38:06;102822.08;;;7.87;42.94
47706;BME280;33471;52.104;1.318;2023-01-28T07:40:33;102822.57;;;7.89;43.08
47706;BME280;33471;52.104;1.318;2023-01-28T07:43:01;102827.92;;;7.58;42.84
47706;BME280;33471;52.104;1.318;2023-01-28T07:45:28;102836.62;;;7.53;43.22
47706;BME280;33471;52.104;1.318;2023-01-28T07:47:57;102836.29;;;6.62;43.07
47706;BME280;33471;52.104;1.318;2023-01-28T07:50:26;102826.36;;;7.37;43.23
47706;BME280;33471;52.104;1.318;2023-01-28T07:52:54;102832.84;;;8.06;42.45
47706;BME280;33471;52.104;1.318;2023-01-28T07:55:21;102830.18;;;8.03;42.52
47706;BME280;33471;52.104;1.318;2023-01-28T07:57:50;102829.87;;;6.95;43.77
47706;BME280;33471;52.104;1.318;2023-01-28T08:00:19;102826.51;;;8.20;42.60
47706;BME280;33471;52.104;1.318;2023-01-28T08:02:47;102828.68;;;8.02;42.82
47706;BME280;33471;52.104;1.318;2023-01-28T08:05:16;102832.96;;;7.79;43.12
47706;BME280;33471;52.104;1.318;2023-01-28T08:07:44;102833.25;;;7.90;42.42
47706;BME280;33471;52.104;1.318;2023-01-28T08:10:12;102825.70;;;7.50;43.16
47706;BME280;33471;52.104;1.318;2023-01-28T08:12:39;102830.97;;;6.79;43.91
47706;BME280;33471;52.104;1.318;2023-01-28T08:15:07;102828.24;;;7.09;43.02
47706;BME280;33471;52.104;1.318;2023-01-28T08:17:35;102827.36;;;7.78;42.42
47706;BME280;33471;52.104;1.318;2023-01-28T08:20:02;102826.37;;;8.29;41.49
47706;BME280;33471;52.104;1.318;2023-01-28T08:22:30;102829.32;;;8.36;41.74
47706;BME280;33471;52.104;1.318;2023-01-28T08:24:57;102832.78;;;7.65;41.84
47706;BME280;33471;52.104;1.318;2023-01-28T08:27:23;102826.98;;;8.30;41.65
47706;BME280;33471;52.104;1.318;2023-01-28T08:29:51;102820.35;;;7.59;42.54
47706;BME280;33471;52.104;1.318;2023-01-28T08:32:18;102825.14;;;8.38;41.19
47706;BME280;33471;52.104;1.318;2023-01-28T08:34:45;102833.41;;;8.36;41.20
47706;BME280;33471;52.104;1.318;2023-01-28T08:37:12;102836.10;;;8.09;41.54
47706;BME280;33471;52.104;1.318;2023-01-28T08:39:40;102836.90;;;7.35;42.72
47706;BME280;33471;52.104;1.318;2023-01-28T08:42:07;102835.11;;;8.00;41.11
47706;BME280;33471;52.104;1.318;2023-01-28T08:44:35;102837.29;;;7.48;41.88
47706;BME280;33471;52.104;1.318;2023-01-28T08:47:03;102840.28;;;7.18;42.60
47706;BME280;33471;52.104;1.318;2023-01-28T08:49:30;102841.70;;;7.05;43.21
47706;BME280;33471;52.104;1.318;2023-01-28T08:51:57;102840.69;;;8.01;41.65
47706;BME280;33471;52.104;1.318;2023-01-28T08:54:24;102842.81;;;7.82;41.96
47706;BME280;33471;52.104;1.318;2023-01-28T08:56:52;102839.99;;;7.53;41.28
47706;BME280;33471;52.104;1.318;2023-01-28T08:59:18;102846.21;;;7.28;42.22
47706;BME280;33471;52.104;1.318;2023-01-28T09:01:46;102848.04;;;7.92;41.24
47706;BME280;33471;52.104;1.318;2023-01-28T09:04:13;102859.78;;;6.73;42.60
47706;BME280;33471;52.104;1.318;2023-01-28T09:06:40;102852.98;;;7.95;41.13
47706;BME280;33471;52.104;1.318;2023-01-28T09:09:07;102850.97;;;8.21;40.20
47706;BME280;33471;52.104;1.318;2023-01-28T09:11:34;102852.24;;;7.81;41.20
47706;BME280;33471;52.104;1.318;2023-01-28T09:14:01;102850.07;;;7.85;41.54
47706;BME280;33471;52.104;1.318;2023-01-28T09:16:28;102860.48;;;8.53;39.71
47706;BME280;33471;52.104;1.318;2023-01-28T09:18:56;102865.56;;;7.97;40.63
47706;BME280;33471;52.104;1.318;2023-01-28T09:21:23;102870.78;;;7.54;40.54
47706;BME280;33471;52.104;1.318;2023-01-28T09:23:50;102875.96;;;8.96;39.10
47706;BME280;33471;52.104;1.318;2023-01-28T09:26:17;102878.77;;;9.04;39.23
47706;BME280;33471;52.104;1.318;2023-01-28T09:28:46;102884.34;;;8.97;39.00
47706;BME280;33471;52.104;1.318;2023-01-28T09:31:14;102876.76;;;8.11;39.97
47706;BME280;33471;52.104;1.318;2023-01-28T09:33:41;102877.52;;;9.50;38.98
47706;BME280;33471;52.104;1.318;2023-01-28T09:36:10;102880.39;;;9.60;39.39
47706;BME280;33471;52.104;1.318;2023-01-28T09:38:37;102884.25;;;9.16;40.49
47706;BME280;33471;52.104;1.318;2023-01-28T09:41:18;102882.78;;;9.06;40.64
47706;BME280;33471;52.104;1.318;2023-01-28T09:43:59;102880.38;;;8.54;40.98
47706;BME280;33471;52.104;1.318;2023-01-28T09:46:32;102882.57;;;9.25;39.70
47706;BME280;33471;52.104;1.318;2023-01-28T09:49:02;102879.78;;;9.33;39.84
47706;BME280;33471;52.104;1.318;2023-01-28T09:51:35;102871.29;;;9.87;40.31
47706;BME280;33471;52.104;1.318;2023-01-28T09:54:13;102866.76;;;9.42;40.66
47706;BME280;33471;52.104;1.318;2023-01-28T09:56:47;102861.66;;;10.18;39.25
47706;BME280;33471;52.104;1.318;2023-01-28T09:59:21;102860.62;;;10.01;39.74
47706;BME280;33471;52.104;1.318;2023-01-28T10:01:54;102847.94;;;10.11;39.87
47706;BME280;33471;52.104;1.318;2023-01-28T10:04:34;102832.38;;;10.13;40.34
47706;BME280;33471;52.104;1.318;2023-01-28T10:07:17;102831.17;;;9.74;41.24
47706;BME280;33471;52.104;1.318;2023-01-28T10:09:55;102848.43;;;9.44;41.57
47706;BME280;33471;52.104;1.318;2023-01-28T10:12:35;102857.26;;;9.39;41.06
47706;BME280;33471;52.104;1.318;2023-01-28T10:15:21;102849.36;;;9.28;40.75
47706;BME280;33471;52.104;1.318;2023-01-28T10:17:56;102849.85;;;9.89;39.94
47706;BME280;33471;52.104;1.318;2023-01-28T10:20:29;102853.20;;;9.73;39.81
47706;BME280;33471;52.104;1.318;2023-01-28T10:23:03;102853.88;;;10.14;39.27
47706;BME280;33471;52.104;1.318;2023-01-28T10:25:32;102850.64;;;9.56;38.71
47706;BME280;33471;52.104;1.318;2023-01-28T10:28:04;102845.09;;;10.39;38.30
47706;BME280;33471;52.104;1.318;2023-01-28T10:30:39;102833.59;;;10.30;38.23
47706;BME280;33471;52.104;1.318;2023-01-28T10:33:17;102828.10;;;10.26;38.16
47706;BME280;33471;52.104;1.318;2023-01-28T10:35:44;102826.76;;;10.90;38.09
47706;BME280;33471;52.104;1.318;2023-01-28T10:38:14;102819.93;;;11.01;38.31
47706;BME280;33471;52.104;1.318;2023-01-28T10:40:43;102811.88;;;11.29;38.44
47706;BME280;33471;52.104;1.318;2023-01-28T10:43:11;102809.71;;;11.25;38.40
47706;BME280;33471;52.104;1.318;2023-01-28T10:45:42;102812.06;;;10.69;39.07
47706;BME280;33471;52.104;1.318;2023-01-28T10:48:20;102803.97;;;10.25;37.98
47706;BME280;33471;52.104;1.318;2023-01-28T10:50:50;102790.61;;;10.38;37.73
47706;BME280;33471;52.104;1.318;2023-01-28T10:53:19;102782.86;;;10.10;38.30
47706;BME280;33471;52.104;1.318;2023-01-28T10:55:50;102778.22;;;10.72;38.22
47706;BME280;33471;52.104;1.318;2023-01-28T10:58:20;102775.46;;;9.66;38.84
47706;BME280;33471;52.104;1.318;2023-01-28T11:00:52;102774.13;;;10.06;38.83
47706;BME280;33471;52.104;1.318;2023-01-28T11:03:20;102774.78;;;9.99;38.00
47706;BME280;33471;52.104;1.318;2023-01-28T11:05:50;102776.23;;;10.60;37.99
47706;BME280;33471;52.104;1.318;2023-01-28T11:08:19;102771.54;;;10.49;37.94
47706;BME280;33471;52.104;1.318;2023-01-28T11:10:48;102765.86;;;10.02;37.95
47706;BME280;33471;52.104;1.318;2023-01-28T11:13:17;102764.47;;;10.74;37.56
47706;BME280;33471;52.104;1.318;2023-01-28T11:15:47;102768.67;;;10.88;36.26
47706;BME280;33471;52.104;1.318;2023-01-28T11:18:17;102767.86;;;10.94;36.35
47706;BME280;33471;52.104;1.318;2023-01-28T11:20:52;102772.94;;;9.55;37.16
47706;BME280;33471;52.104;1.318;2023-01-28T11:23:28;102780.32;;;10.22;36.39
47706;BME280;33471;52.104;1.318;2023-01-28T11:26:01;102783.79;;;9.82;36.36
47706;BME280;33471;52.104;1.318;2023-01-28T11:28:30;102782.92;;;8.81;36.87
47706;BME280;33471;52.104;1.318;2023-01-28T11:31:00;102789.29;;;9.67;36.24
47706;BME280;33471;52.104;1.318;2023-01-28T11:33:32;102796.94;;;10.39;35.65
47706;BME280;33471;52.104;1.318;2023-01-28T11:36:07;102797.44;;;8.74;37.63
47706;BME280;33471;52.104;1.318;2023-01-28T11:38:35;102800.81;;;10.44;35.30
47706;BME280;33471;52.104;1.318;2023-01-28T11:41:02;102803.10;;;9.97;36.30
47706;BME280;33471;52.104;1.318;2023-01-28T11:43:30;102802.33;;;8.98;38.50
47706;BME280;33471;52.104;1.318;2023-01-28T11:46:11;102800.16;;;9.65;38.07
47706;BME280;33471;52.104;1.318;2023-01-28T11:48:49;102803.49;;;9.67;38.00
47706;BME280;33471;52.104;1.318;2023-01-28T11:51:28;102804.60;;;10.80;35.33
47706;BME280;33471;52.104;1.318;2023-01-28T11:54:12;102808.84;;;10.38;35.31
47706;BME280;33471;52.104;1.318;2023-01-28T11:56:54;102804.45;;;9.98;36.27
47706;BME280;33471;52.104;1.318;2023-01-28T11:59:39;102795.43;;;9.80;35.88
47706;BME280;33471;52.104;1.318;2023-01-28T12:02:21;102787.83;;;10.22;35.88
47706;BME280;33471;52.104;1.318;2023-01-28T12:05:04;102768.56;;;11.11;35.08
47706;BME280;33471;52.104;1.318;2023-01-28T12:07:41;102761.42;;;11.18;34.76
47706;BME280;33471;52.104;1.318;2023-01-28T12:10:18;102762.60;;;9.85;35.83
47706;BME280;33471;52.104;1.318;2023-01-28T12:12:58;102769.95;;;8.73;38.13
47706;BME280;33471;52.104;1.318;2023-01-28T12:16:14;102767.69;;;10.71;36.19
47706;BME280;33471;52.104;1.318;2023-01-28T12:19:46;102771.18;;;9.35;36.59
47706;BME280;33471;52.104;1.318;2023-01-28T12:22:27;102774.77;;;9.73;36.21
47706;BME280;33471;52.104;1.318;2023-01-28T12:25:11;102780.16;;;9.98;35.70
47706;BME280;33471;52.104;1.318;2023-01-28T12:27:49;102779.81;;;9.92;35.96
47706;BME280;33471;52.104;1.318;2023-01-28T12:30:27;102774.77;;;9.41;36.26
47706;BME280;33471;52.104;1.318;2023-01-28T12:33:19;102771.62;;;8.94;37.65
47706;BME280;33471;52.104;1.318;2023-01-28T12:35:59;102772.92;;;7.96;39.02
47706;BME280;33471;52.104;1.318;2023-01-28T12:38:38;102777.40;;;8.45;38.00
47706;BME280;33471;52.104;1.318;2023-01-28T12:41:12;102771.26;;;6.94;41.39
47706;BME280;33471;52.104;1.318;2023-01-28T12:43:54;102772.22;;;7.44;40.04
47706;BME280;33471;52.104;1.318;2023-01-28T12:46:32;102765.92;;;8.61;39.31
47706;BME280;33471;52.104;1.318;2023-01-28T12:49:05;102768.34;;;8.98;37.92
47706;BME280;33471;52.104;1.318;2023-01-28T12:51:45;102770.44;;;8.45;38.52
47706;BME280;33471;52.104;1.318;2023-01-28T12:54:17;102763.75;;;8.12;38.39
47706;BME280;33471;52.104;1.318;2023-01-28T12:56:50;102757.99;;;8.28;38.53
47706;BME280;33471;52.104;1.318;2023-01-28T12:59:22;102747.94;;;9.47;36.82
47706;BME280;33471;52.104;1.318;2023-01-28T13:01:57;102747.10;;;8.10;39.73
47706;BME280;33471;52.104;1.318;2023-01-28T13:04:33;102740.77;;;9.13;38.07
47706;BME280;33471;52.104;1.318;2023-01-28T13:07:07;102742.92;;;9.61;36.81
47706;BME280;33471;52.104;1.318;2023-01-28T13:09:40;102739.03;;;9.63;36.13
47706;BME280;33471;52.104;1.318;2023-01-28T13:12:11;102726.55;;;8.59;37.88
47706;BME280;33471;52.104;1.318;2023-01-28T13:14:39;102723.80;;;9.50;35.76
47706;BME280;33471;52.104;1.318;2023-01-28T13:17:08;102720.30;;;9.20;36.30